<?xml version="1.0" encoding="UTF-8" standalone="no" ?>
<gpx xmlns="http://www.topografix.com/GPX/1/1" xmlns:xsi="http://www.w3.org/2001/XMLSchema-instance" xsi:schemaLocation="http://www.topografix.com/GPX/1/1 http://www.topografix.com/GPX/1/1/gpx.xsd" version="1.1" creator="VisuGPX - https://www.visugpx.com">
  <metadata>
    <name>ALBIGEOISE 2016</name>
    <desc><![CDATA[Grand circuit Albogeoise 2016]]></desc>
  </metadata>
  <trk>
    <name><![CDATA[--Albi-- OR-5392558:Gran Fondo UCI Albi 2017 Grand Parcours]]></name>
    <trkseg>
      <trkpt lat="43.92819" lon="2.14188">
        <ele>175</ele>
        <time>2016-04-27T11:30:36Z</time>
      </trkpt>
      <trkpt lat="43.92666" lon="2.14199">
        <ele>172</ele>
        <time>2016-04-27T11:32:36Z</time>
      </trkpt>
      <trkpt lat="43.92515" lon="2.14087">
        <ele>174</ele>
        <time>2016-04-27T11:34:36Z</time>
      </trkpt>
      <trkpt lat="43.924" lon="2.13778">
        <ele>174</ele>
        <time>2016-04-27T11:36:36Z</time>
      </trkpt>
      <trkpt lat="43.92606" lon="2.13055">
        <ele>174</ele>
        <time>2016-04-27T11:38:36Z</time>
      </trkpt>
      <trkpt lat="43.92504" lon="2.08577">
        <ele>156</ele>
        <time>2016-04-27T11:40:36Z</time>
      </trkpt>
      <trkpt lat="43.92464" lon="2.07345">
        <ele>157</ele>
        <time>2016-04-27T11:42:36Z</time>
      </trkpt>
      <trkpt lat="43.92389" lon="2.06195">
        <ele>154</ele>
        <time>2016-04-27T11:44:36Z</time>
      </trkpt>
      <trkpt lat="43.91988" lon="2.04144">
        <ele>145</ele>
        <time>2016-04-27T11:46:36Z</time>
      </trkpt>
      <trkpt lat="43.91839" lon="2.0341">
        <ele>149</ele>
        <time>2016-04-27T11:48:36Z</time>
      </trkpt>
      <trkpt lat="43.91848" lon="2.03123">
        <ele>150</ele>
        <time>2016-04-27T11:50:36Z</time>
      </trkpt>
      <trkpt lat="43.91799" lon="2.03007">
        <ele>151</ele>
        <time>2016-04-27T11:52:36Z</time>
      </trkpt>
      <trkpt lat="43.92049" lon="2.02809">
        <ele>145</ele>
        <time>2016-04-27T11:54:36Z</time>
      </trkpt>
      <trkpt lat="43.92099" lon="2.02693">
        <ele>158</ele>
        <time>2016-04-27T11:56:36Z</time>
      </trkpt>
      <trkpt lat="43.92116" lon="2.02487">
        <ele>162</ele>
        <time>2016-04-27T11:58:36Z</time>
      </trkpt>
      <trkpt lat="43.92561" lon="2.01548">
        <ele>171</ele>
        <time>2016-04-27T12:00:36Z</time>
      </trkpt>
      <trkpt lat="43.92906" lon="2.01492">
        <ele>183</ele>
        <time>2016-04-27T12:02:36Z</time>
      </trkpt>
      <trkpt lat="43.92958" lon="2.01425">
        <ele>183</ele>
        <time>2016-04-27T12:04:36Z</time>
      </trkpt>
      <trkpt lat="43.92952" lon="2.01333">
        <ele>188</ele>
        <time>2016-04-27T12:06:36Z</time>
      </trkpt>
      <trkpt lat="43.93006" lon="2.0129">
        <ele>191</ele>
        <time>2016-04-27T12:08:36Z</time>
      </trkpt>
      <trkpt lat="43.93059" lon="2.01061">
        <ele>189</ele>
        <time>2016-04-27T12:10:36Z</time>
      </trkpt>
      <trkpt lat="43.93076" lon="2.00595">
        <ele>182</ele>
        <time>2016-04-27T12:12:36Z</time>
      </trkpt>
      <trkpt lat="43.9353" lon="1.99642">
        <ele>159</ele>
        <time>2016-04-27T12:14:36Z</time>
      </trkpt>
      <trkpt lat="43.93653" lon="1.99471">
        <ele>163</ele>
        <time>2016-04-27T12:16:36Z</time>
      </trkpt>
      <trkpt lat="43.93762" lon="1.99342">
        <ele>168</ele>
        <time>2016-04-27T12:18:36Z</time>
      </trkpt>
      <trkpt lat="43.94224" lon="1.99189">
        <ele>181</ele>
        <time>2016-04-27T12:20:36Z</time>
      </trkpt>
      <trkpt lat="43.94434" lon="1.98889">
        <ele>185</ele>
        <time>2016-04-27T12:22:36Z</time>
      </trkpt>
      <trkpt lat="43.94726" lon="1.98524">
        <ele>168</ele>
        <time>2016-04-27T12:24:36Z</time>
      </trkpt>
      <trkpt lat="43.95205" lon="1.97778">
        <ele>192</ele>
        <time>2016-04-27T12:26:36Z</time>
      </trkpt>
      <trkpt lat="43.9532" lon="1.97366">
        <ele>218</ele>
        <time>2016-04-27T12:28:36Z</time>
      </trkpt>
      <trkpt lat="43.9565" lon="1.96956">
        <ele>219</ele>
        <time>2016-04-27T12:30:36Z</time>
      </trkpt>
      <trkpt lat="43.96088" lon="1.9678">
        <ele>228</ele>
        <time>2016-04-27T12:32:36Z</time>
      </trkpt>
      <trkpt lat="43.96545" lon="1.95619">
        <ele>221</ele>
        <time>2016-04-27T12:34:36Z</time>
      </trkpt>
      <trkpt lat="43.97135" lon="1.94276">
        <ele>239</ele>
        <time>2016-04-27T12:36:36Z</time>
      </trkpt>
      <trkpt lat="43.9718" lon="1.93853">
        <ele>240</ele>
        <time>2016-04-27T12:38:36Z</time>
      </trkpt>
      <trkpt lat="43.97196" lon="1.93794">
        <ele>240</ele>
        <time>2016-04-27T12:40:36Z</time>
      </trkpt>
      <trkpt lat="43.97303" lon="1.93628">
        <ele>238</ele>
        <time>2016-04-27T12:42:36Z</time>
      </trkpt>
      <trkpt lat="43.97673" lon="1.93262">
        <ele>229</ele>
        <time>2016-04-27T12:44:36Z</time>
      </trkpt>
      <trkpt lat="43.97789" lon="1.93069">
        <ele>227</ele>
        <time>2016-04-27T12:46:36Z</time>
      </trkpt>
      <trkpt lat="43.98002" lon="1.93119">
        <ele>207</ele>
        <time>2016-04-27T12:48:36Z</time>
      </trkpt>
      <trkpt lat="43.98136" lon="1.92832">
        <ele>198</ele>
        <time>2016-04-27T12:50:36Z</time>
      </trkpt>
      <trkpt lat="43.98091" lon="1.92716">
        <ele>199</ele>
        <time>2016-04-27T12:52:36Z</time>
      </trkpt>
      <trkpt lat="43.98227" lon="1.92329">
        <ele>208</ele>
        <time>2016-04-27T12:54:36Z</time>
      </trkpt>
      <trkpt lat="43.98332" lon="1.91409">
        <ele>200</ele>
        <time>2016-04-27T12:56:36Z</time>
      </trkpt>
      <trkpt lat="43.98332" lon="1.91342">
        <ele>196</ele>
        <time>2016-04-27T12:58:36Z</time>
      </trkpt>
      <trkpt lat="43.9831" lon="1.91143">
        <ele>204</ele>
        <time>2016-04-27T13:00:36Z</time>
      </trkpt>
      <trkpt lat="43.9836" lon="1.90795">
        <ele>199</ele>
        <time>2016-04-27T13:02:36Z</time>
      </trkpt>
      <trkpt lat="43.98778" lon="1.89673">
        <ele>196</ele>
        <time>2016-04-27T13:04:36Z</time>
      </trkpt>
      <trkpt lat="43.9898" lon="1.89377">
        <ele>193</ele>
        <time>2016-04-27T13:06:36Z</time>
      </trkpt>
      <trkpt lat="43.99122" lon="1.88694">
        <ele>194</ele>
        <time>2016-04-27T13:08:36Z</time>
      </trkpt>
      <trkpt lat="43.9926" lon="1.87952">
        <ele>192</ele>
        <time>2016-04-27T13:10:36Z</time>
      </trkpt>
      <trkpt lat="43.9919" lon="1.87497">
        <ele>192</ele>
        <time>2016-04-27T13:12:36Z</time>
      </trkpt>
      <trkpt lat="43.99292" lon="1.8733">
        <ele>191</ele>
        <time>2016-04-27T13:14:36Z</time>
      </trkpt>
      <trkpt lat="43.99249" lon="1.87261">
        <ele>196</ele>
        <time>2016-04-27T13:16:36Z</time>
      </trkpt>
      <trkpt lat="43.99186" lon="1.86916">
        <ele>189</ele>
        <time>2016-04-27T13:18:36Z</time>
      </trkpt>
      <trkpt lat="43.9915" lon="1.85976">
        <ele>185</ele>
        <time>2016-04-27T13:20:36Z</time>
      </trkpt>
      <trkpt lat="43.9896" lon="1.85506">
        <ele>186</ele>
        <time>2016-04-27T13:22:36Z</time>
      </trkpt>
      <trkpt lat="43.98912" lon="1.85373">
        <ele>185</ele>
        <time>2016-04-27T13:24:36Z</time>
      </trkpt>
      <trkpt lat="43.98741" lon="1.84776">
        <ele>175</ele>
        <time>2016-04-27T13:26:36Z</time>
      </trkpt>
      <trkpt lat="43.98658" lon="1.84268">
        <ele>181</ele>
        <time>2016-04-27T13:28:36Z</time>
      </trkpt>
      <trkpt lat="43.98627" lon="1.84103">
        <ele>178</ele>
        <time>2016-04-27T13:30:36Z</time>
      </trkpt>
      <trkpt lat="43.98824" lon="1.83615">
        <ele>181</ele>
        <time>2016-04-27T13:32:36Z</time>
      </trkpt>
      <trkpt lat="43.98837" lon="1.82882">
        <ele>175</ele>
        <time>2016-04-27T13:34:36Z</time>
      </trkpt>
      <trkpt lat="43.988" lon="1.82755">
        <ele>176</ele>
        <time>2016-04-27T13:36:36Z</time>
      </trkpt>
      <trkpt lat="43.98593" lon="1.81974">
        <ele>170</ele>
        <time>2016-04-27T13:38:36Z</time>
      </trkpt>
      <trkpt lat="43.98306" lon="1.81455">
        <ele>167</ele>
        <time>2016-04-27T13:40:36Z</time>
      </trkpt>
      <trkpt lat="43.98275" lon="1.81365">
        <ele>168</ele>
        <time>2016-04-27T13:42:36Z</time>
      </trkpt>
      <trkpt lat="43.97889" lon="1.81738">
        <ele>171</ele>
        <time>2016-04-27T13:44:36Z</time>
      </trkpt>
      <trkpt lat="43.97036" lon="1.82086">
        <ele>218</ele>
        <time>2016-04-27T13:46:36Z</time>
      </trkpt>
      <trkpt lat="43.96851" lon="1.82103">
        <ele>238</ele>
        <time>2016-04-27T13:48:36Z</time>
      </trkpt>
      <trkpt lat="43.9665" lon="1.82231">
        <ele>257</ele>
        <time>2016-04-27T13:50:36Z</time>
      </trkpt>
      <trkpt lat="43.96499" lon="1.82137">
        <ele>273</ele>
        <time>2016-04-27T13:52:36Z</time>
      </trkpt>
      <trkpt lat="43.96477" lon="1.81837">
        <ele>266</ele>
        <time>2016-04-27T13:54:36Z</time>
      </trkpt>
      <trkpt lat="43.9657" lon="1.81558">
        <ele>246</ele>
        <time>2016-04-27T13:56:36Z</time>
      </trkpt>
      <trkpt lat="43.96817" lon="1.81489">
        <ele>228</ele>
        <time>2016-04-27T13:58:36Z</time>
      </trkpt>
      <trkpt lat="43.97006" lon="1.79871">
        <ele>174</ele>
        <time>2016-04-27T14:00:36Z</time>
      </trkpt>
      <trkpt lat="43.97361" lon="1.79081">
        <ele>164</ele>
        <time>2016-04-27T14:02:36Z</time>
      </trkpt>
      <trkpt lat="43.9733" lon="1.78236">
        <ele>172</ele>
        <time>2016-04-27T14:04:36Z</time>
      </trkpt>
      <trkpt lat="43.97043" lon="1.76949">
        <ele>167</ele>
        <time>2016-04-27T14:06:36Z</time>
      </trkpt>
      <trkpt lat="43.96978" lon="1.75897">
        <ele>166</ele>
        <time>2016-04-27T14:08:36Z</time>
      </trkpt>
      <trkpt lat="43.96817" lon="1.7373">
        <ele>153</ele>
        <time>2016-04-27T14:10:36Z</time>
      </trkpt>
      <trkpt lat="43.96765" lon="1.73236">
        <ele>153</ele>
        <time>2016-04-27T14:12:36Z</time>
      </trkpt>
      <trkpt lat="43.97821" lon="1.72472">
        <ele>160</ele>
        <time>2016-04-27T14:14:36Z</time>
      </trkpt>
      <trkpt lat="43.98219" lon="1.71777">
        <ele>158</ele>
        <time>2016-04-27T14:16:36Z</time>
      </trkpt>
      <trkpt lat="43.9872" lon="1.71052">
        <ele>150</ele>
        <time>2016-04-27T14:18:36Z</time>
      </trkpt>
      <trkpt lat="43.99112" lon="1.70425">
        <ele>140</ele>
        <time>2016-04-27T14:20:36Z</time>
      </trkpt>
      <trkpt lat="43.99643" lon="1.69752">
        <ele>138</ele>
        <time>2016-04-27T14:22:36Z</time>
      </trkpt>
      <trkpt lat="44.00229" lon="1.69258">
        <ele>141</ele>
        <time>2016-04-27T14:24:36Z</time>
      </trkpt>
      <trkpt lat="44.00257" lon="1.68885">
        <ele>139</ele>
        <time>2016-04-27T14:26:36Z</time>
      </trkpt>
      <trkpt lat="44.0013" lon="1.68245">
        <ele>143</ele>
        <time>2016-04-27T14:28:36Z</time>
      </trkpt>
      <trkpt lat="44.00973" lon="1.68305">
        <ele>135</ele>
        <time>2016-04-27T14:30:36Z</time>
      </trkpt>
      <trkpt lat="44.01504" lon="1.6776">
        <ele>149</ele>
        <time>2016-04-27T14:32:36Z</time>
      </trkpt>
      <trkpt lat="44.02322" lon="1.67366">
        <ele>134</ele>
        <time>2016-04-27T14:34:36Z</time>
      </trkpt>
      <trkpt lat="44.03593" lon="1.66924">
        <ele>120</ele>
        <time>2016-04-27T14:36:36Z</time>
      </trkpt>
      <trkpt lat="44.03988" lon="1.67284">
        <ele>118</ele>
        <time>2016-04-27T14:38:36Z</time>
      </trkpt>
      <trkpt lat="44.04432" lon="1.67078">
        <ele>117</ele>
        <time>2016-04-27T14:40:36Z</time>
      </trkpt>
      <trkpt lat="44.04704" lon="1.67417">
        <ele>112</ele>
        <time>2016-04-27T14:42:36Z</time>
      </trkpt>
      <trkpt lat="44.05117" lon="1.67293">
        <ele>113</ele>
        <time>2016-04-27T14:44:36Z</time>
      </trkpt>
      <trkpt lat="44.05607" lon="1.67087">
        <ele>108</ele>
        <time>2016-04-27T14:46:36Z</time>
      </trkpt>
      <trkpt lat="44.05854" lon="1.67336">
        <ele>116</ele>
        <time>2016-04-27T14:48:36Z</time>
      </trkpt>
      <trkpt lat="44.06298" lon="1.67593">
        <ele>137</ele>
        <time>2016-04-27T14:50:36Z</time>
      </trkpt>
      <trkpt lat="44.06425" lon="1.67726">
        <ele>142</ele>
        <time>2016-04-27T14:52:36Z</time>
      </trkpt>
      <trkpt lat="44.06082" lon="1.68387">
        <ele>200</ele>
        <time>2016-04-27T14:54:36Z</time>
      </trkpt>
      <trkpt lat="44.05888" lon="1.69571">
        <ele>264</ele>
        <time>2016-04-27T14:56:36Z</time>
      </trkpt>
      <trkpt lat="44.05993" lon="1.71773">
        <ele>329</ele>
        <time>2016-04-27T14:58:36Z</time>
      </trkpt>
      <trkpt lat="44.05965" lon="1.72022">
        <ele>330</ele>
        <time>2016-04-27T15:00:36Z</time>
      </trkpt>
      <trkpt lat="44.06027" lon="1.72786">
        <ele>358</ele>
        <time>2016-04-27T15:02:36Z</time>
      </trkpt>
      <trkpt lat="44.05842" lon="1.727">
        <ele>378</ele>
        <time>2016-04-27T15:04:36Z</time>
      </trkpt>
      <trkpt lat="44.05672" lon="1.73545">
        <ele>406</ele>
        <time>2016-04-27T15:06:36Z</time>
      </trkpt>
      <trkpt lat="44.05657" lon="1.74206">
        <ele>439</ele>
        <time>2016-04-27T15:08:36Z</time>
      </trkpt>
      <trkpt lat="44.05225" lon="1.74588">
        <ele>428</ele>
        <time>2016-04-27T15:10:36Z</time>
      </trkpt>
      <trkpt lat="44.0499" lon="1.75597">
        <ele>408</ele>
        <time>2016-04-27T15:12:36Z</time>
      </trkpt>
      <trkpt lat="44.05308" lon="1.75974">
        <ele>436</ele>
        <time>2016-04-27T15:14:36Z</time>
      </trkpt>
      <trkpt lat="44.05268" lon="1.76798">
        <ele>447</ele>
        <time>2016-04-27T15:16:36Z</time>
      </trkpt>
      <trkpt lat="44.05555" lon="1.77125">
        <ele>465</ele>
        <time>2016-04-27T15:18:36Z</time>
      </trkpt>
      <trkpt lat="44.05549" lon="1.77751">
        <ele>463</ele>
        <time>2016-04-27T15:20:36Z</time>
      </trkpt>
      <trkpt lat="44.05382" lon="1.78511">
        <ele>453</ele>
        <time>2016-04-27T15:22:36Z</time>
      </trkpt>
      <trkpt lat="44.05308" lon="1.78841">
        <ele>444</ele>
        <time>2016-04-27T15:24:36Z</time>
      </trkpt>
      <trkpt lat="44.05367" lon="1.79935">
        <ele>412</ele>
        <time>2016-04-27T15:26:36Z</time>
      </trkpt>
      <trkpt lat="44.05552" lon="1.80223">
        <ele>405</ele>
        <time>2016-04-27T15:28:36Z</time>
      </trkpt>
      <trkpt lat="44.05783" lon="1.80326">
        <ele>415</ele>
        <time>2016-04-27T15:30:36Z</time>
      </trkpt>
      <trkpt lat="44.06745" lon="1.80099">
        <ele>425</ele>
        <time>2016-04-27T15:32:36Z</time>
      </trkpt>
      <trkpt lat="44.06465" lon="1.79764">
        <ele>407</ele>
        <time>2016-04-27T15:34:36Z</time>
      </trkpt>
      <trkpt lat="44.06406" lon="1.79021">
        <ele>376</ele>
        <time>2016-04-27T15:36:36Z</time>
      </trkpt>
      <trkpt lat="44.0665" lon="1.78541">
        <ele>369</ele>
        <time>2016-04-27T15:38:36Z</time>
      </trkpt>
      <trkpt lat="44.06727" lon="1.77575">
        <ele>364</ele>
        <time>2016-04-27T15:40:36Z</time>
      </trkpt>
      <trkpt lat="44.07242" lon="1.76176">
        <ele>285</ele>
        <time>2016-04-27T15:42:36Z</time>
      </trkpt>
      <trkpt lat="44.07532" lon="1.76356">
        <ele>263</ele>
        <time>2016-04-27T15:44:36Z</time>
      </trkpt>
      <trkpt lat="44.07535" lon="1.7561">
        <ele>224</ele>
        <time>2016-04-27T15:46:36Z</time>
      </trkpt>
      <trkpt lat="44.07562" lon="1.74288">
        <ele>158</ele>
        <time>2016-04-27T15:48:36Z</time>
      </trkpt>
      <trkpt lat="44.07337" lon="1.74232">
        <ele>175</ele>
        <time>2016-04-27T15:50:36Z</time>
      </trkpt>
      <trkpt lat="44.07482" lon="1.74112">
        <ele>166</ele>
        <time>2016-04-27T15:52:36Z</time>
      </trkpt>
      <trkpt lat="44.07553" lon="1.73863">
        <ele>185</ele>
        <time>2016-04-27T15:54:36Z</time>
      </trkpt>
      <trkpt lat="44.07467" lon="1.73601">
        <ele>195</ele>
        <time>2016-04-27T15:56:36Z</time>
      </trkpt>
      <trkpt lat="44.07661" lon="1.73193">
        <ele>162</ele>
        <time>2016-04-27T15:58:36Z</time>
      </trkpt>
      <trkpt lat="44.07812" lon="1.72627">
        <ele>153</ele>
        <time>2016-04-27T16:00:36Z</time>
      </trkpt>
      <trkpt lat="44.07948" lon="1.72481">
        <ele>125</ele>
        <time>2016-04-27T16:02:36Z</time>
      </trkpt>
      <trkpt lat="44.07951" lon="1.72644">
        <ele>135</ele>
        <time>2016-04-27T16:04:36Z</time>
      </trkpt>
      <trkpt lat="44.07954" lon="1.72717">
        <ele>129</ele>
        <time>2016-04-27T16:06:36Z</time>
      </trkpt>
      <trkpt lat="44.07831" lon="1.73168">
        <ele>120</ele>
        <time>2016-04-27T16:08:36Z</time>
      </trkpt>
      <trkpt lat="44.08207" lon="1.73816">
        <ele>119</ele>
        <time>2016-04-27T16:10:36Z</time>
      </trkpt>
      <trkpt lat="44.08691" lon="1.73554">
        <ele>134</ele>
        <time>2016-04-27T16:12:36Z</time>
      </trkpt>
      <trkpt lat="44.09236" lon="1.72382">
        <ele>115</ele>
        <time>2016-04-27T16:14:36Z</time>
      </trkpt>
      <trkpt lat="44.10004" lon="1.72721">
        <ele>148</ele>
        <time>2016-04-27T16:16:36Z</time>
      </trkpt>
      <trkpt lat="44.10685" lon="1.7176">
        <ele>119</ele>
        <time>2016-04-27T16:18:36Z</time>
      </trkpt>
      <trkpt lat="44.11326" lon="1.72743">
        <ele>123</ele>
        <time>2016-04-27T16:20:36Z</time>
      </trkpt>
      <trkpt lat="44.12111" lon="1.72194">
        <ele>126</ele>
        <time>2016-04-27T16:22:36Z</time>
      </trkpt>
      <trkpt lat="44.12937" lon="1.71267">
        <ele>130</ele>
        <time>2016-04-27T16:24:36Z</time>
      </trkpt>
      <trkpt lat="44.13159" lon="1.70794">
        <ele>132</ele>
        <time>2016-04-27T16:26:36Z</time>
      </trkpt>
      <trkpt lat="44.13223" lon="1.7082">
        <ele>140</ele>
        <time>2016-04-27T16:28:36Z</time>
      </trkpt>
      <trkpt lat="44.13131" lon="1.70932">
        <ele>148</ele>
        <time>2016-04-27T16:30:36Z</time>
      </trkpt>
      <trkpt lat="44.1322" lon="1.7094">
        <ele>151</ele>
        <time>2016-04-27T16:32:36Z</time>
      </trkpt>
      <trkpt lat="44.13205" lon="1.71443">
        <ele>167</ele>
        <time>2016-04-27T16:34:36Z</time>
      </trkpt>
      <trkpt lat="44.13374" lon="1.71833">
        <ele>199</ele>
        <time>2016-04-27T16:36:36Z</time>
      </trkpt>
      <trkpt lat="44.13347" lon="1.72082">
        <ele>208</ele>
        <time>2016-04-27T16:38:36Z</time>
      </trkpt>
      <trkpt lat="44.13636" lon="1.71885">
        <ele>173</ele>
        <time>2016-04-27T16:40:36Z</time>
      </trkpt>
      <trkpt lat="44.14221" lon="1.71739">
        <ele>156</ele>
        <time>2016-04-27T16:42:36Z</time>
      </trkpt>
      <trkpt lat="44.14849" lon="1.71601">
        <ele>135</ele>
        <time>2016-04-27T16:44:36Z</time>
      </trkpt>
      <trkpt lat="44.14809" lon="1.71966">
        <ele>151</ele>
        <time>2016-04-27T16:46:36Z</time>
      </trkpt>
      <trkpt lat="44.14708" lon="1.72266">
        <ele>154</ele>
        <time>2016-04-27T16:48:36Z</time>
      </trkpt>
      <trkpt lat="44.14739" lon="1.72468">
        <ele>148</ele>
        <time>2016-04-27T16:50:36Z</time>
      </trkpt>
      <trkpt lat="44.1488" lon="1.72545">
        <ele>139</ele>
        <time>2016-04-27T16:52:36Z</time>
      </trkpt>
      <trkpt lat="44.15173" lon="1.72103">
        <ele>135</ele>
        <time>2016-04-27T16:54:36Z</time>
      </trkpt>
      <trkpt lat="44.15244" lon="1.72335">
        <ele>140</ele>
        <time>2016-04-27T16:56:36Z</time>
      </trkpt>
      <trkpt lat="44.15127" lon="1.7264">
        <ele>133</ele>
        <time>2016-04-27T16:58:36Z</time>
      </trkpt>
      <trkpt lat="44.14736" lon="1.73249">
        <ele>154</ele>
        <time>2016-04-27T17:00:36Z</time>
      </trkpt>
      <trkpt lat="44.14886" lon="1.74455">
        <ele>138</ele>
        <time>2016-04-27T17:02:36Z</time>
      </trkpt>
      <trkpt lat="44.14933" lon="1.75455">
        <ele>142</ele>
        <time>2016-04-27T17:04:36Z</time>
      </trkpt>
      <trkpt lat="44.1489" lon="1.75657">
        <ele>139</ele>
        <time>2016-04-27T17:06:36Z</time>
      </trkpt>
      <trkpt lat="44.14729" lon="1.75931">
        <ele>160</ele>
        <time>2016-04-27T17:08:36Z</time>
      </trkpt>
      <trkpt lat="44.14662" lon="1.76305">
        <ele>174</ele>
        <time>2016-04-27T17:10:36Z</time>
      </trkpt>
      <trkpt lat="44.14597" lon="1.7706">
        <ele>225</ele>
        <time>2016-04-27T17:12:36Z</time>
      </trkpt>
      <trkpt lat="44.14495" lon="1.7779">
        <ele>280</ele>
        <time>2016-04-27T17:14:36Z</time>
      </trkpt>
      <trkpt lat="44.14615" lon="1.77983">
        <ele>278</ele>
        <time>2016-04-27T17:16:36Z</time>
      </trkpt>
      <trkpt lat="44.14212" lon="1.78463">
        <ele>320</ele>
        <time>2016-04-27T17:18:36Z</time>
      </trkpt>
      <trkpt lat="44.14015" lon="1.78498">
        <ele>344</ele>
        <time>2016-04-27T17:20:36Z</time>
      </trkpt>
      <trkpt lat="44.13615" lon="1.78648">
        <ele>349</ele>
        <time>2016-04-27T17:22:36Z</time>
      </trkpt>
      <trkpt lat="44.12934" lon="1.78644">
        <ele>328</ele>
        <time>2016-04-27T17:24:36Z</time>
      </trkpt>
      <trkpt lat="44.11914" lon="1.78635">
        <ele>324</ele>
        <time>2016-04-27T17:26:36Z</time>
      </trkpt>
      <trkpt lat="44.11082" lon="1.78639">
        <ele>320</ele>
        <time>2016-04-27T17:28:36Z</time>
      </trkpt>
      <trkpt lat="44.10438" lon="1.78841">
        <ele>316</ele>
        <time>2016-04-27T17:30:36Z</time>
      </trkpt>
      <trkpt lat="44.10229" lon="1.79262">
        <ele>313</ele>
        <time>2016-04-27T17:32:36Z</time>
      </trkpt>
      <trkpt lat="44.10253" lon="1.79554">
        <ele>309</ele>
        <time>2016-04-27T17:34:36Z</time>
      </trkpt>
      <trkpt lat="44.09951" lon="1.7985">
        <ele>327</ele>
        <time>2016-04-27T17:36:36Z</time>
      </trkpt>
      <trkpt lat="44.09665" lon="1.7982">
        <ele>335</ele>
        <time>2016-04-27T17:38:36Z</time>
      </trkpt>
      <trkpt lat="44.09659" lon="1.80468">
        <ele>358</ele>
        <time>2016-04-27T17:40:36Z</time>
      </trkpt>
      <trkpt lat="44.09261" lon="1.80738">
        <ele>395</ele>
        <time>2016-04-27T17:42:36Z</time>
      </trkpt>
      <trkpt lat="44.09024" lon="1.80579">
        <ele>411</ele>
        <time>2016-04-27T17:44:36Z</time>
      </trkpt>
      <trkpt lat="44.0891" lon="1.80652">
        <ele>414</ele>
        <time>2016-04-27T17:46:36Z</time>
      </trkpt>
      <trkpt lat="44.08626" lon="1.8115">
        <ele>419</ele>
        <time>2016-04-27T17:48:36Z</time>
      </trkpt>
      <trkpt lat="44.08666" lon="1.81416">
        <ele>424</ele>
        <time>2016-04-27T17:50:36Z</time>
      </trkpt>
      <trkpt lat="44.08722" lon="1.81622">
        <ele>431</ele>
        <time>2016-04-27T17:52:36Z</time>
      </trkpt>
      <trkpt lat="44.08506" lon="1.81862">
        <ele>441</ele>
        <time>2016-04-27T17:54:36Z</time>
      </trkpt>
      <trkpt lat="44.08509" lon="1.82231">
        <ele>438</ele>
        <time>2016-04-27T17:56:36Z</time>
      </trkpt>
      <trkpt lat="44.07929" lon="1.83339">
        <ele>410</ele>
        <time>2016-04-27T17:58:36Z</time>
      </trkpt>
      <trkpt lat="44.07581" lon="1.83969">
        <ele>397</ele>
        <time>2016-04-27T18:00:36Z</time>
      </trkpt>
      <trkpt lat="44.07319" lon="1.84051">
        <ele>382</ele>
        <time>2016-04-27T18:02:36Z</time>
      </trkpt>
      <trkpt lat="44.07276" lon="1.84231">
        <ele>386</ele>
        <time>2016-04-27T18:04:36Z</time>
      </trkpt>
      <trkpt lat="44.06819" lon="1.84236">
        <ele>375</ele>
        <time>2016-04-27T18:06:36Z</time>
      </trkpt>
      <trkpt lat="44.06807" lon="1.8454">
        <ele>376</ele>
        <time>2016-04-27T18:08:36Z</time>
      </trkpt>
      <trkpt lat="44.06887" lon="1.85326">
        <ele>370</ele>
        <time>2016-04-27T18:10:36Z</time>
      </trkpt>
      <trkpt lat="44.06829" lon="1.866">
        <ele>354</ele>
        <time>2016-04-27T18:12:36Z</time>
      </trkpt>
      <trkpt lat="44.06437" lon="1.87394">
        <ele>332</ele>
        <time>2016-04-27T18:14:36Z</time>
      </trkpt>
      <trkpt lat="44.06696" lon="1.87587">
        <ele>323</ele>
        <time>2016-04-27T18:16:36Z</time>
      </trkpt>
      <trkpt lat="44.06227" lon="1.87836">
        <ele>285</ele>
        <time>2016-04-27T18:18:36Z</time>
      </trkpt>
      <trkpt lat="44.06236" lon="1.8887">
        <ele>240</ele>
        <time>2016-04-27T18:20:36Z</time>
      </trkpt>
      <trkpt lat="44.06335" lon="1.89347">
        <ele>222</ele>
        <time>2016-04-27T18:22:36Z</time>
      </trkpt>
      <trkpt lat="44.06622" lon="1.89789">
        <ele>199</ele>
        <time>2016-04-27T18:24:36Z</time>
      </trkpt>
      <trkpt lat="44.06397" lon="1.90291">
        <ele>174</ele>
        <time>2016-04-27T18:26:36Z</time>
      </trkpt>
      <trkpt lat="44.06403" lon="1.90381">
        <ele>171</ele>
        <time>2016-04-27T18:28:36Z</time>
      </trkpt>
      <trkpt lat="44.06317" lon="1.90587">
        <ele>169</ele>
        <time>2016-04-27T18:30:36Z</time>
      </trkpt>
      <trkpt lat="44.06437" lon="1.91222">
        <ele>166</ele>
        <time>2016-04-27T18:32:36Z</time>
      </trkpt>
      <trkpt lat="44.06718" lon="1.92368">
        <ele>165</ele>
        <time>2016-04-27T18:34:36Z</time>
      </trkpt>
      <trkpt lat="44.06912" lon="1.93192">
        <ele>196</ele>
        <time>2016-04-27T18:36:36Z</time>
      </trkpt>
      <trkpt lat="44.06878" lon="1.93462">
        <ele>198</ele>
        <time>2016-04-27T18:38:36Z</time>
      </trkpt>
      <trkpt lat="44.06684" lon="1.93879">
        <ele>177</ele>
        <time>2016-04-27T18:40:36Z</time>
      </trkpt>
      <trkpt lat="44.0664" lon="1.94861">
        <ele>183</ele>
        <time>2016-04-27T18:42:36Z</time>
      </trkpt>
      <trkpt lat="44.06594" lon="1.95303">
        <ele>201</ele>
        <time>2016-04-27T18:44:36Z</time>
      </trkpt>
      <trkpt lat="44.06443" lon="1.95475">
        <ele>209</ele>
        <time>2016-04-27T18:46:36Z</time>
      </trkpt>
      <trkpt lat="44.06277" lon="1.95754">
        <ele>211</ele>
        <time>2016-04-27T18:48:36Z</time>
      </trkpt>
      <trkpt lat="44.06024" lon="1.96213">
        <ele>201</ele>
        <time>2016-04-27T18:50:36Z</time>
      </trkpt>
      <trkpt lat="44.05857" lon="1.9681">
        <ele>195</ele>
        <time>2016-04-27T18:52:36Z</time>
      </trkpt>
      <trkpt lat="44.05617" lon="1.96926">
        <ele>197</ele>
        <time>2016-04-27T18:54:36Z</time>
      </trkpt>
      <trkpt lat="44.05521" lon="1.97007">
        <ele>200</ele>
        <time>2016-04-27T18:56:36Z</time>
      </trkpt>
      <trkpt lat="44.05428" lon="1.97187">
        <ele>206</ele>
        <time>2016-04-27T18:58:36Z</time>
      </trkpt>
      <trkpt lat="44.05373" lon="1.97278">
        <ele>206</ele>
        <time>2016-04-27T19:00:36Z</time>
      </trkpt>
      <trkpt lat="44.05246" lon="1.97458">
        <ele>212</ele>
        <time>2016-04-27T19:02:36Z</time>
      </trkpt>
      <trkpt lat="44.05139" lon="1.97651">
        <ele>212</ele>
        <time>2016-04-27T19:04:36Z</time>
      </trkpt>
      <trkpt lat="44.05012" lon="1.97904">
        <ele>215</ele>
        <time>2016-04-27T19:06:36Z</time>
      </trkpt>
      <trkpt lat="44.04966" lon="1.98102">
        <ele>221</ele>
        <time>2016-04-27T19:08:36Z</time>
      </trkpt>
      <trkpt lat="44.04916" lon="1.98441">
        <ele>235</ele>
        <time>2016-04-27T19:10:36Z</time>
      </trkpt>
      <trkpt lat="44.04697" lon="1.98647">
        <ele>259</ele>
        <time>2016-04-27T19:12:36Z</time>
      </trkpt>
      <trkpt lat="44.04719" lon="1.98505">
        <ele>277</ele>
        <time>2016-04-27T19:14:36Z</time>
      </trkpt>
      <trkpt lat="44.04531" lon="1.98445">
        <ele>293</ele>
        <time>2016-04-27T19:16:36Z</time>
      </trkpt>
      <trkpt lat="44.04358" lon="1.98586">
        <ele>296</ele>
        <time>2016-04-27T19:18:36Z</time>
      </trkpt>
      <trkpt lat="44.03954" lon="1.9902">
        <ele>310</ele>
        <time>2016-04-27T19:20:36Z</time>
      </trkpt>
      <trkpt lat="44.03608" lon="1.99106">
        <ele>311</ele>
        <time>2016-04-27T19:22:36Z</time>
      </trkpt>
      <trkpt lat="44.03396" lon="1.9929">
        <ele>309</ele>
        <time>2016-04-27T19:24:36Z</time>
      </trkpt>
      <trkpt lat="44.03281" lon="1.99183">
        <ele>310</ele>
        <time>2016-04-27T19:26:36Z</time>
      </trkpt>
      <trkpt lat="44.02948" lon="1.97853">
        <ele>300</ele>
        <time>2016-04-27T19:28:36Z</time>
      </trkpt>
      <trkpt lat="44.02297" lon="1.97896">
        <ele>299</ele>
        <time>2016-04-27T19:30:36Z</time>
      </trkpt>
      <trkpt lat="44.01455" lon="1.9829">
        <ele>276</ele>
        <time>2016-04-27T19:32:36Z</time>
      </trkpt>
      <trkpt lat="44.01013" lon="1.98419">
        <ele>254</ele>
        <time>2016-04-27T19:34:36Z</time>
      </trkpt>
      <trkpt lat="44.00989" lon="1.98368">
        <ele>253</ele>
        <time>2016-04-27T19:36:36Z</time>
      </trkpt>
      <trkpt lat="44.00933" lon="1.98737">
        <ele>228</ele>
        <time>2016-04-27T19:38:36Z</time>
      </trkpt>
      <trkpt lat="44.00538" lon="1.99677">
        <ele>267</ele>
        <time>2016-04-27T19:40:36Z</time>
      </trkpt>
      <trkpt lat="43.99615" lon="2.01719">
        <ele>280</ele>
        <time>2016-04-27T19:42:36Z</time>
      </trkpt>
      <trkpt lat="43.98611" lon="2.00209">
        <ele>266</ele>
        <time>2016-04-27T19:44:36Z</time>
      </trkpt>
      <trkpt lat="43.98201" lon="1.98492">
        <ele>252</ele>
        <time>2016-04-27T19:46:36Z</time>
      </trkpt>
      <trkpt lat="43.98074" lon="1.98552">
        <ele>239</ele>
        <time>2016-04-27T19:48:36Z</time>
      </trkpt>
      <trkpt lat="43.97555" lon="1.98681">
        <ele>215</ele>
        <time>2016-04-27T19:50:36Z</time>
      </trkpt>
      <trkpt lat="43.97321" lon="1.99149">
        <ele>217</ele>
        <time>2016-04-27T19:52:36Z</time>
      </trkpt>
      <trkpt lat="43.96913" lon="1.99638">
        <ele>253</ele>
        <time>2016-04-27T19:54:36Z</time>
      </trkpt>
      <trkpt lat="43.96737" lon="2.0099">
        <ele>196</ele>
        <time>2016-04-27T19:56:36Z</time>
      </trkpt>
      <trkpt lat="43.95906" lon="2.01938">
        <ele>199</ele>
        <time>2016-04-27T19:58:36Z</time>
      </trkpt>
      <trkpt lat="43.95773" lon="2.02462">
        <ele>185</ele>
        <time>2016-04-27T20:00:36Z</time>
      </trkpt>
      <trkpt lat="43.95526" lon="2.02565">
        <ele>179</ele>
        <time>2016-04-27T20:02:36Z</time>
      </trkpt>
      <trkpt lat="43.95467" lon="2.02324">
        <ele>186</ele>
        <time>2016-04-27T20:04:36Z</time>
      </trkpt>
      <trkpt lat="43.94948" lon="2.02191">
        <ele>194</ele>
        <time>2016-04-27T20:06:36Z</time>
      </trkpt>
      <trkpt lat="43.94491" lon="2.01848">
        <ele>186</ele>
        <time>2016-04-27T20:08:36Z</time>
      </trkpt>
      <trkpt lat="43.94037" lon="2.01548">
        <ele>194</ele>
        <time>2016-04-27T20:10:36Z</time>
      </trkpt>
      <trkpt lat="43.93446" lon="2.01509">
        <ele>194</ele>
        <time>2016-04-27T20:12:36Z</time>
      </trkpt>
      <trkpt lat="43.93042" lon="2.01299">
        <ele>192</ele>
        <time>2016-04-27T20:14:36Z</time>
      </trkpt>
      <trkpt lat="43.92955" lon="2.01376">
        <ele>185</ele>
        <time>2016-04-27T20:16:36Z</time>
      </trkpt>
      <trkpt lat="43.92621" lon="2.01556">
        <ele>177</ele>
        <time>2016-04-27T20:18:36Z</time>
      </trkpt>
      <trkpt lat="43.92275" lon="2.02123">
        <ele>164</ele>
        <time>2016-04-27T20:20:36Z</time>
      </trkpt>
      <trkpt lat="43.92105" lon="2.02556">
        <ele>161</ele>
        <time>2016-04-27T20:22:36Z</time>
      </trkpt>
      <trkpt lat="43.9208" lon="2.02779">
        <ele>148</ele>
        <time>2016-04-27T20:24:36Z</time>
      </trkpt>
      <trkpt lat="43.91814" lon="2.02955">
        <ele>151</ele>
        <time>2016-04-27T20:26:36Z</time>
      </trkpt>
      <trkpt lat="43.91403" lon="2.04296">
        <ele>155</ele>
        <time>2016-04-27T20:28:36Z</time>
      </trkpt>
      <trkpt lat="43.9128" lon="2.04468">
        <ele>155</ele>
        <time>2016-04-27T20:30:36Z</time>
      </trkpt>
      <trkpt lat="43.911" lon="2.0455">
        <ele>155</ele>
        <time>2016-04-27T20:32:36Z</time>
      </trkpt>
      <trkpt lat="43.90865" lon="2.04833">
        <ele>157</ele>
        <time>2016-04-27T20:34:36Z</time>
      </trkpt>
      <trkpt lat="43.90377" lon="2.04515">
        <ele>159</ele>
        <time>2016-04-27T20:36:36Z</time>
      </trkpt>
      <trkpt lat="43.9017" lon="2.04824">
        <ele>162</ele>
        <time>2016-04-27T20:38:36Z</time>
      </trkpt>
      <trkpt lat="43.89975" lon="2.04966">
        <ele>164</ele>
        <time>2016-04-27T20:40:36Z</time>
      </trkpt>
      <trkpt lat="43.90207" lon="2.05335">
        <ele>163</ele>
        <time>2016-04-27T20:42:36Z</time>
      </trkpt>
      <trkpt lat="43.90346" lon="2.05451">
        <ele>163</ele>
        <time>2016-04-27T20:44:36Z</time>
      </trkpt>
      <trkpt lat="43.90417" lon="2.05648">
        <ele>163</ele>
        <time>2016-04-27T20:46:36Z</time>
      </trkpt>
      <trkpt lat="43.90649" lon="2.05721">
        <ele>161</ele>
        <time>2016-04-27T20:48:36Z</time>
      </trkpt>
      <trkpt lat="43.90875" lon="2.06013">
        <ele>160</ele>
        <time>2016-04-27T20:50:36Z</time>
      </trkpt>
      <trkpt lat="43.91119" lon="2.0618">
        <ele>159</ele>
        <time>2016-04-27T20:52:36Z</time>
      </trkpt>
      <trkpt lat="43.9119" lon="2.06322">
        <ele>160</ele>
        <time>2016-04-27T20:54:36Z</time>
      </trkpt>
      <trkpt lat="43.91329" lon="2.06322">
        <ele>159</ele>
        <time>2016-04-27T20:56:36Z</time>
      </trkpt>
      <trkpt lat="43.91345" lon="2.06425">
        <ele>162</ele>
        <time>2016-04-27T20:58:36Z</time>
      </trkpt>
      <trkpt lat="43.91292" lon="2.06914">
        <ele>165</ele>
        <time>2016-04-27T21:00:36Z</time>
      </trkpt>
      <trkpt lat="43.91326" lon="2.07352">
        <ele>166</ele>
        <time>2016-04-27T21:02:36Z</time>
      </trkpt>
      <trkpt lat="43.91335" lon="2.07451">
        <ele>166</ele>
        <time>2016-04-27T21:04:36Z</time>
      </trkpt>
      <trkpt lat="43.9111" lon="2.07644">
        <ele>166</ele>
        <time>2016-04-27T21:06:36Z</time>
      </trkpt>
      <trkpt lat="43.90998" lon="2.07828">
        <ele>166</ele>
        <time>2016-04-27T21:08:36Z</time>
      </trkpt>
      <trkpt lat="43.90924" lon="2.08064">
        <ele>167</ele>
        <time>2016-04-27T21:10:36Z</time>
      </trkpt>
      <trkpt lat="43.90831" lon="2.08463">
        <ele>168</ele>
        <time>2016-04-27T21:12:36Z</time>
      </trkpt>
      <trkpt lat="43.90822" lon="2.08708">
        <ele>171</ele>
        <time>2016-04-27T21:14:36Z</time>
      </trkpt>
      <trkpt lat="43.90875" lon="2.09043">
        <ele>179</ele>
        <time>2016-04-27T21:16:36Z</time>
      </trkpt>
      <trkpt lat="43.90918" lon="2.0933">
        <ele>174</ele>
        <time>2016-04-27T21:18:36Z</time>
      </trkpt>
      <trkpt lat="43.90912" lon="2.09759">
        <ele>172</ele>
        <time>2016-04-27T21:20:36Z</time>
      </trkpt>
      <trkpt lat="43.90992" lon="2.10086">
        <ele>169</ele>
        <time>2016-04-27T21:22:36Z</time>
      </trkpt>
      <trkpt lat="43.91113" lon="2.10154">
        <ele>169</ele>
        <time>2016-04-27T21:24:36Z</time>
      </trkpt>
    </trkseg>
  </trk>
</gpx>